createdAt,value
2018-09-02T00:00:38.543Z,71.12
2018-09-02T00:01:17.158Z,71.66
2018-09-02T00:01:56.312Z,71.60
2018-09-02T00:02:35.405Z,71.58
2018-09-02T00:03:14.194Z,71.02
2018-09-02T00:03:52.739Z,71.58
2018-09-02T00:04:31.430Z,71.36
2018-09-02T00:05:10.157Z,71.69
2018-09-02T00:05:48.803Z,71.17
2018-09-02T00:06:27.868Z,71.35
2018-09-02T00:07:06.769Z,70.84
2018-09-02T00:07:45.421Z,70.85
2018-09-02T00:08:24.129Z,70.82
2018-09-02T00:09:02.884Z,70.76
2018-09-02T00:09:41.510Z,71.93
2018-09-02T00:10:20.221Z,71.69
2018-09-02T00:10:59.117Z,70.60
2018-09-02T00:11:37.851Z,70.85
2018-09-02T00:12:17.051Z,70.88
2018-09-02T00:12:55.584Z,70.79
2018-09-02T00:13:34.281Z,70.74
2018-09-02T00:14:12.958Z,71.43
2018-09-02T00:14:51.707Z,70.94
2018-09-02T00:15:31.681Z,70.93
2018-09-02T00:16:11.720Z,70.27
2018-09-02T00:16:50.517Z,70.82
2018-09-02T00:17:29.255Z,70.34
2018-09-02T00:18:07.874Z,70.51
2018-09-02T00:18:46.409Z,71.16
2018-09-02T00:19:25.709Z,70.28
2018-09-02T00:20:04.661Z,69.70
2018-09-02T00:20:45.131Z,70.19
2018-09-02T00:21:25.008Z,69.94
2018-09-02T00:22:03.664Z,69.71
2018-09-02T00:22:44.157Z,69.56
2018-09-02T00:23:22.811Z,68.30
2018-09-02T00:24:01.761Z,69.78
2018-09-02T00:24:40.423Z,69.10
2018-09-02T00:25:18.856Z,69.29
2018-09-02T00:25:57.377Z,69.24
2018-09-02T00:26:35.907Z,69.05
2018-09-02T00:27:14.588Z,69.33
2018-09-02T00:27:53.143Z,68.47
2018-09-02T00:28:31.974Z,69.21
2018-09-02T00:29:10.477Z,68.36
2018-09-02T00:29:48.916Z,68.00
2018-09-02T00:30:27.370Z,68.01
2018-09-02T00:31:05.875Z,67.56
2018-09-02T00:31:44.353Z,67.40
2018-09-02T00:32:22.589Z,67.84
2018-09-02T00:33:00.801Z,67.04
2018-09-02T00:33:38.792Z,66.99
2018-09-02T00:34:16.884Z,65.88
2018-09-02T00:34:54.874Z,65.87
2018-09-02T00:35:33.080Z,64.96
2018-09-02T00:36:11.100Z,66.09
2018-09-02T00:36:49.248Z,65.76
2018-09-02T00:37:27.478Z,64.78
2018-09-02T00:38:05.833Z,64.42
2018-09-02T00:38:43.825Z,64.78
2018-09-02T00:39:21.763Z,65.04
2018-09-02T00:39:59.779Z,64.80
2018-09-02T00:40:37.680Z,64.88
2018-09-02T00:41:16.001Z,63.92
2018-09-02T00:41:53.979Z,63.98
2018-09-02T00:42:32.068Z,64.13
2018-09-02T00:43:10.061Z,63.90
2018-09-02T00:43:48.109Z,63.86
2018-09-02T00:44:31.181Z,63.51
2018-09-02T00:45:10.457Z,63.14
2018-09-02T00:45:48.720Z,62.80
2018-09-02T00:46:26.817Z,62.66
2018-09-02T00:47:04.674Z,62.31
2018-09-02T00:47:42.678Z,62.37
2018-09-02T00:48:20.730Z,62.00
2018-09-02T00:48:58.888Z,61.96
2018-09-02T00:49:36.867Z,61.71
2018-09-02T00:50:14.900Z,61.31
2018-09-02T00:50:52.900Z,61.42
2018-09-02T00:51:30.932Z,61.35
2018-09-02T00:52:09.235Z,61.18
2018-09-02T00:52:47.387Z,61.54
2018-09-02T00:53:25.387Z,61.16
2018-09-02T00:54:03.517Z,60.96
2018-09-02T00:54:41.448Z,60.17
2018-09-02T00:55:19.562Z,60.71
2018-09-02T00:55:57.897Z,60.38
2018-09-02T00:56:36.306Z,60.45
2018-09-02T00:57:14.307Z,60.29
2018-09-02T00:57:52.312Z,59.64
2018-09-02T00:58:30.336Z,59.40
2018-09-02T00:59:08.492Z,59.14
2018-09-02T00:59:46.553Z,59.13
2018-09-02T01:00:24.576Z,59.27
2018-09-02T01:01:02.671Z,58.89
2018-09-02T01:01:40.650Z,58.74
2018-09-02T01:02:18.610Z,58.49
2018-09-02T01:02:56.637Z,58.49
2018-09-02T01:03:34.952Z,58.49
2018-09-02T01:04:12.965Z,58.84
2018-09-02T01:04:50.973Z,59.47
2018-09-02T01:05:28.916Z,59.43
2018-09-02T01:06:06.951Z,59.73
2018-09-02T01:06:45.006Z,60.57
2018-09-02T01:07:23.775Z,60.39
2018-09-02T01:08:01.714Z,60.70
2018-09-02T01:08:39.876Z,60.94
2018-09-02T01:09:17.933Z,59.79
2018-09-02T01:09:55.957Z,59.51
2018-09-02T01:10:34.382Z,59.99
2018-09-02T01:11:12.309Z,59.82
2018-09-02T01:11:50.365Z,59.50
2018-09-02T01:12:28.291Z,59.10
2018-09-02T01:13:06.362Z,59.22
2018-09-02T01:13:44.413Z,58.97
2018-09-02T01:14:22.537Z,58.69
2018-09-02T01:15:00.614Z,58.31
2018-09-02T01:15:39.211Z,57.96
2018-09-02T01:16:17.641Z,57.94
2018-09-02T01:17:01.164Z,57.94
2018-09-02T01:17:39.224Z,58.22
2018-09-02T01:18:17.254Z,57.43
2018-09-02T01:18:55.374Z,57.78
2018-09-02T01:19:33.404Z,57.59
2018-09-02T01:20:11.749Z,57.35
2018-09-02T01:20:49.743Z,57.54
2018-09-02T01:21:27.676Z,57.12
2018-09-02T01:22:05.754Z,56.22
2018-09-02T01:22:43.844Z,55.85
2018-09-02T01:23:21.906Z,56.23
2018-09-02T01:24:00.000Z,54.93
2018-09-02T01:24:38.070Z,55.80
2018-09-02T01:25:16.065Z,55.31
2018-09-02T01:25:54.371Z,54.39
2018-09-02T01:26:32.513Z,55.55
2018-09-02T01:27:10.633Z,54.36
2018-09-02T01:27:48.639Z,54.99
2018-09-02T01:28:32.273Z,54.53
2018-09-02T01:29:10.284Z,53.28
2018-09-02T01:29:48.989Z,53.44
2018-09-02T01:30:27.179Z,53.85
2018-09-02T01:31:05.314Z,52.69
2018-09-02T01:31:43.299Z,53.11
2018-09-02T01:32:21.251Z,51.83
2018-09-02T01:32:59.453Z,52.81
2018-09-02T01:34:19.823Z,53.05
2018-09-02T01:34:57.902Z,52.71
2018-09-02T01:35:37.108Z,52.11
2018-09-02T01:36:15.028Z,52.42
2018-09-02T01:36:53.372Z,52.69
2018-09-02T01:37:31.332Z,52.05
2018-09-02T01:38:09.510Z,53.18
2018-09-02T01:38:47.597Z,52.31
2018-09-02T01:39:25.547Z,51.89
2018-09-02T01:40:03.700Z,51.42
2018-09-02T01:40:41.745Z,51.39
2018-09-02T01:41:19.810Z,50.27
2018-09-02T01:42:02.197Z,49.86
2018-09-02T01:42:40.395Z,49.42
2018-09-02T01:43:18.363Z,49.14
2018-09-02T01:43:56.333Z,49.30
2018-09-02T01:44:34.284Z,48.39
2018-09-02T01:45:12.269Z,48.50
2018-09-02T01:45:50.323Z,48.98
2018-09-02T01:46:28.292Z,49.24
2018-09-02T01:47:06.500Z,48.81
2018-09-02T01:47:44.458Z,49.51
2018-09-02T01:48:22.383Z,48.13
2018-09-02T01:49:00.428Z,49.05
2018-09-02T01:49:38.454Z,48.77
2018-09-02T01:50:18.106Z,48.64
2018-09-02T01:50:56.012Z,48.10
2018-09-02T01:51:33.973Z,47.85
2018-09-02T01:52:11.982Z,47.71
2018-09-02T01:52:50.379Z,48.35
2018-09-02T01:53:28.510Z,47.53
2018-09-02T01:54:06.561Z,48.15
2018-09-02T01:54:44.500Z,47.26
2018-09-02T01:55:22.453Z,47.20
2018-09-02T01:56:00.376Z,47.94
2018-09-02T01:56:38.464Z,47.40
2018-09-02T01:57:16.522Z,47.51
2018-09-02T01:57:54.556Z,47.43
2018-09-02T01:58:32.555Z,46.40
2018-09-02T01:59:10.680Z,47.22
2018-09-02T01:59:48.621Z,46.14
2018-09-02T02:00:26.509Z,46.78
2018-09-02T02:01:04.417Z,45.93
2018-09-02T02:01:42.407Z,46.61
2018-09-02T02:02:20.527Z,46.50
2018-09-02T02:02:58.413Z,47.02
2018-09-02T02:03:36.547Z,47.81
2018-09-02T02:04:14.629Z,48.76
2018-09-02T02:04:52.593Z,47.38
2018-09-02T02:05:30.611Z,47.10
2018-09-02T02:06:08.563Z,47.01
2018-09-02T02:06:46.553Z,47.98
2018-09-02T02:07:24.528Z,48.17
2018-09-02T02:08:02.638Z,49.38
2018-09-02T02:08:40.521Z,49.18
2018-09-02T02:09:18.650Z,48.49
2018-09-02T02:09:56.560Z,48.42
2018-09-02T02:10:34.574Z,49.82
2018-09-02T02:11:12.835Z,50.08
2018-09-02T02:11:50.885Z,49.62
2018-09-02T02:12:28.941Z,49.66
2018-09-02T02:13:06.958Z,49.20
2018-09-02T02:13:44.931Z,48.91
2018-09-02T02:14:22.921Z,47.98
2018-09-02T02:15:00.794Z,48.67
2018-09-02T02:15:38.714Z,48.46
2018-09-02T02:16:16.910Z,48.50
2018-09-02T02:16:54.852Z,48.57
2018-09-02T02:17:32.948Z,48.29
2018-09-02T02:18:11.339Z,49.05
2018-09-02T02:18:49.278Z,49.71
2018-09-02T02:19:27.384Z,49.05
2018-09-02T02:20:05.456Z,48.38
2018-09-02T02:20:43.498Z,48.00
2018-09-02T02:21:21.452Z,48.71
2018-09-02T02:21:59.496Z,48.12
2018-09-02T02:22:37.500Z,47.58
2018-09-02T02:23:15.464Z,47.30
2018-09-02T02:23:53.512Z,46.99
2018-09-02T02:24:31.811Z,46.88
2018-09-02T02:25:09.872Z,46.61
2018-09-02T02:25:47.892Z,46.38
2018-09-02T02:26:25.702Z,45.75
2018-09-02T02:27:03.796Z,45.13
2018-09-02T02:27:41.712Z,45.65
2018-09-02T02:28:20.193Z,45.41
2018-09-02T02:28:58.183Z,44.38
2018-09-02T02:29:36.367Z,44.26
2018-09-02T02:30:14.560Z,44.37
2018-09-02T02:30:52.548Z,44.66
2018-09-02T02:31:30.608Z,44.37
2018-09-02T02:32:08.852Z,44.04
2018-09-02T02:32:46.816Z,45.08
2018-09-02T02:33:24.875Z,43.90
2018-09-02T02:34:02.956Z,43.42
2018-09-02T02:34:41.007Z,44.37
2018-09-02T02:35:19.068Z,43.95
2018-09-02T02:35:56.990Z,43.79
2018-09-02T02:36:34.973Z,44.62
2018-09-02T02:37:13.125Z,44.35
2018-09-02T02:37:51.128Z,43.99
2018-09-02T02:38:29.156Z,44.01
2018-09-02T02:39:07.462Z,44.78
2018-09-02T02:39:45.372Z,45.62
2018-09-02T02:40:23.359Z,44.93
2018-09-02T02:41:01.799Z,44.92
2018-09-02T02:41:39.984Z,45.22
2018-09-02T02:42:18.015Z,45.28
2018-09-02T02:42:55.957Z,45.64
2018-09-02T02:43:33.957Z,45.13
2018-09-02T02:44:12.545Z,44.84
2018-09-02T02:44:51.392Z,44.33
2018-09-02T02:45:30.193Z,43.59
2018-09-02T02:46:08.133Z,42.68
2018-09-02T02:46:46.000Z,42.70
2018-09-02T02:47:23.959Z,42.49
2018-09-02T02:48:02.035Z,42.68
2018-09-02T02:48:40.030Z,43.24
2018-09-02T02:49:18.071Z,42.63
2018-09-02T02:49:56.093Z,42.68
2018-09-02T02:50:34.128Z,41.72
2018-09-02T02:51:12.100Z,41.98
2018-09-02T02:51:50.034Z,42.15
2018-09-02T02:52:34.435Z,43.11
2018-09-02T02:53:12.391Z,42.65
2018-09-02T02:53:50.555Z,43.54
2018-09-02T02:54:28.641Z,43.98
2018-09-02T02:55:06.662Z,43.65
2018-09-02T02:55:44.703Z,44.31
2018-09-02T02:56:22.743Z,45.12
2018-09-02T02:57:00.739Z,45.00
2018-09-02T02:57:38.770Z,43.91
2018-09-02T02:58:18.561Z,44.58
2018-09-02T02:58:56.764Z,45.07
2018-09-02T02:59:35.085Z,45.29
2018-09-02T03:00:13.146Z,45.99
2018-09-02T03:00:51.237Z,46.17
2018-09-02T03:01:29.365Z,46.37
2018-09-02T03:02:07.455Z,46.45
2018-09-02T03:02:45.495Z,44.95
2018-09-02T03:03:24.216Z,44.89
2018-09-02T03:04:02.741Z,45.14
2018-09-02T03:04:43.324Z,45.25
2018-09-02T03:05:21.368Z,44.77
2018-09-02T03:05:59.516Z,45.74
2018-09-02T03:06:37.628Z,45.72
2018-09-02T03:07:15.905Z,45.63
2018-09-02T03:07:53.870Z,45.93
2018-09-02T03:08:31.811Z,46.36
2018-09-02T03:09:12.230Z,46.28
2018-09-02T03:09:50.154Z,46.52
2018-09-02T03:10:29.074Z,46.72
2018-09-02T03:11:07.106Z,47.07
2018-09-02T03:11:45.132Z,47.34
2018-09-02T03:12:23.325Z,48.01
2018-09-02T03:13:01.196Z,48.44
2018-09-02T03:13:39.324Z,48.93
2018-09-02T03:14:17.327Z,48.64
2018-09-02T03:14:55.175Z,48.75
2018-09-02T03:15:33.214Z,48.30
2018-09-02T03:16:12.767Z,48.39
2018-09-02T03:16:51.005Z,48.80
2018-09-02T03:17:29.045Z,49.00
2018-09-02T03:18:07.052Z,48.37
2018-09-02T03:18:45.123Z,47.81
2018-09-02T03:19:23.189Z,47.53
2018-09-02T03:20:01.380Z,46.92
2018-09-02T03:20:39.634Z,45.81
2018-09-02T03:21:17.661Z,47.07
2018-09-02T03:21:55.714Z,46.32
2018-09-02T03:22:34.579Z,47.39
2018-09-02T03:23:12.599Z,47.62
2018-09-02T03:23:50.524Z,47.33
2018-09-02T03:24:29.371Z,46.89
2018-09-02T03:25:08.555Z,48.21
2018-09-02T03:25:46.414Z,47.90
2018-09-02T03:26:24.455Z,47.83
2018-09-02T03:27:02.469Z,48.21
2018-09-02T03:27:40.529Z,49.11
2018-09-02T03:28:18.544Z,48.62
2018-09-02T03:28:56.632Z,49.32
2018-09-02T03:29:34.620Z,48.54
2018-09-02T03:30:13.143Z,48.57
2018-09-02T03:30:51.172Z,48.56
2018-09-02T03:31:29.189Z,49.05
2018-09-02T03:32:07.205Z,48.87
2018-09-02T03:32:45.254Z,49.57
2018-09-02T03:33:23.354Z,49.21
2018-09-02T03:34:01.550Z,50.14
2018-09-02T03:34:39.613Z,49.60
2018-09-02T03:35:17.542Z,49.64
2018-09-02T03:35:55.510Z,49.72
2018-09-02T03:36:33.447Z,49.80
2018-09-02T03:37:11.337Z,50.43
2018-09-02T03:37:48.662Z,48.99
2018-09-02T03:38:26.589Z,49.09
2018-09-02T03:39:04.920Z,48.80
2018-09-02T03:39:42.847Z,48.46
2018-09-02T03:40:20.798Z,47.44
2018-09-02T03:40:58.703Z,47.26
2018-09-02T03:41:36.718Z,46.13
2018-09-02T03:42:14.670Z,45.73
2018-09-02T03:42:53.597Z,45.33
2018-09-02T03:43:31.593Z,44.88
2018-09-02T03:44:09.764Z,44.73
2018-09-02T03:44:47.876Z,44.49
2018-09-02T03:45:25.891Z,44.61
2018-09-02T03:46:03.818Z,44.18
2018-09-02T03:46:41.756Z,44.45
2018-09-02T03:47:19.729Z,44.12
2018-09-02T03:47:57.649Z,45.01
2018-09-02T03:48:35.603Z,45.14
2018-09-02T03:49:13.736Z,46.50
2018-09-02T03:49:51.651Z,46.52
2018-09-02T03:50:29.728Z,46.69
2018-09-02T03:51:07.732Z,46.43
2018-09-02T03:51:45.897Z,46.94
2018-09-02T03:52:23.818Z,46.51
2018-09-02T03:53:01.894Z,47.36
2018-09-02T03:53:39.864Z,47.30
2018-09-02T03:54:17.828Z,46.29
2018-09-02T03:54:55.754Z,46.52
2018-09-02T03:55:33.755Z,47.22
2018-09-02T03:56:11.763Z,47.43
2018-09-02T03:56:49.908Z,47.78
2018-09-02T03:57:27.827Z,46.98
2018-09-02T03:58:05.677Z,47.12
2018-09-02T03:58:43.752Z,47.23
2018-09-02T03:59:21.866Z,47.39
2018-09-02T04:00:00.044Z,48.13
2018-09-02T04:00:38.241Z,48.67
2018-09-02T04:01:16.212Z,48.42
2018-09-02T04:01:54.275Z,49.64
2018-09-02T04:02:32.340Z,49.07
2018-09-02T04:03:10.312Z,49.87
2018-09-02T04:03:48.221Z,48.84
2018-09-02T04:04:26.211Z,48.96
2018-09-02T04:05:04.257Z,48.77
2018-09-02T04:05:42.237Z,49.08
2018-09-02T04:06:20.227Z,49.48
2018-09-02T04:06:58.303Z,50.48
2018-09-02T04:07:36.249Z,50.79
2018-09-02T04:08:14.260Z,51.42
2018-09-02T04:08:52.363Z,52.39
2018-09-02T04:09:30.468Z,53.54
2018-09-02T04:10:08.543Z,53.95
2018-09-02T04:10:46.532Z,55.64
2018-09-02T04:11:24.564Z,56.97
2018-09-02T04:12:03.421Z,56.58
2018-09-02T04:12:41.576Z,57.73
2018-09-02T04:13:19.719Z,59.34
2018-09-02T04:13:57.729Z,58.39
2018-09-02T04:14:35.727Z,58.97
2018-09-02T04:15:13.688Z,59.75
2018-09-02T04:15:51.704Z,60.56
2018-09-02T04:16:29.888Z,61.53
2018-09-02T04:17:07.767Z,61.88
2018-09-02T04:17:45.904Z,62.52
2018-09-02T04:18:23.937Z,63.60
2018-09-02T04:19:02.113Z,62.69
2018-09-02T04:19:40.194Z,64.19
2018-09-02T04:20:21.727Z,64.21
2018-09-02T04:20:59.755Z,64.54
2018-09-02T04:21:37.795Z,65.38
2018-09-02T04:22:15.713Z,65.11
2018-09-02T04:22:53.745Z,65.67
2018-09-02T04:23:31.789Z,65.29
2018-09-02T04:24:09.833Z,65.29
2018-09-02T04:24:47.920Z,66.30
2018-09-02T04:25:25.981Z,65.83
2018-09-02T04:26:03.946Z,65.78
2018-09-02T04:26:42.031Z,65.91
2018-09-02T04:27:20.021Z,66.21
2018-09-02T04:27:57.983Z,66.35
2018-09-02T04:28:36.000Z,65.94
2018-09-02T04:29:13.997Z,66.40
2018-09-02T04:29:52.045Z,66.42
2018-09-02T04:30:31.387Z,66.68
2018-09-02T04:31:09.363Z,66.82
2018-09-02T04:31:47.411Z,67.00
2018-09-02T04:32:25.420Z,67.01
2018-09-02T04:33:03.491Z,66.52
2018-09-02T04:33:41.590Z,66.53
2018-09-02T04:34:20.735Z,67.38
2018-09-02T04:34:58.780Z,67.28
2018-09-02T04:35:36.707Z,67.06
2018-09-02T04:36:14.773Z,66.66
2018-09-02T04:36:52.785Z,66.19
2018-09-02T04:37:30.705Z,66.01
2018-09-02T04:38:08.764Z,65.64
2018-09-02T04:38:46.602Z,65.55
2018-09-02T04:39:24.579Z,65.31
2018-09-02T04:40:02.697Z,64.97
2018-09-02T04:40:40.704Z,65.05
2018-09-02T04:41:18.832Z,64.28
2018-09-02T04:41:56.768Z,64.33
2018-09-02T04:42:34.745Z,63.93
2018-09-02T04:43:12.889Z,64.48
2018-09-02T04:43:51.156Z,64.31
2018-09-02T04:44:29.224Z,63.81
2018-09-02T04:45:07.421Z,64.25
2018-09-02T04:45:45.336Z,63.87
2018-09-02T04:46:23.392Z,64.23
2018-09-02T04:47:01.661Z,64.11
2018-09-02T04:47:39.653Z,63.22
2018-09-02T04:48:17.808Z,62.67
2018-09-02T04:48:55.934Z,63.38
2018-09-02T04:49:33.987Z,63.67
2018-09-02T04:50:18.348Z,63.66
2018-09-02T04:50:56.314Z,63.29
2018-09-02T04:51:34.256Z,63.61
2018-09-02T04:52:12.302Z,63.62
2018-09-02T04:52:50.323Z,64.24
2018-09-02T04:53:28.414Z,64.24
2018-09-02T04:54:06.505Z,64.25
2018-09-02T04:54:44.505Z,65.05
2018-09-02T04:55:22.620Z,65.23
2018-09-02T04:56:00.764Z,64.97
2018-09-02T04:56:38.764Z,65.03
2018-09-02T04:57:16.667Z,64.54
2018-09-02T04:57:54.824Z,64.21
2018-09-02T04:58:32.831Z,64.66
2018-09-02T04:59:11.337Z,64.81
2018-09-02T04:59:49.478Z,65.59
2018-09-02T05:00:27.760Z,65.54
2018-09-02T05:01:05.712Z,65.38
2018-09-02T05:01:43.681Z,66.31
2018-09-02T05:02:21.804Z,66.65
2018-09-02T05:03:00.617Z,66.80
2018-09-02T05:03:38.584Z,66.78
2018-09-02T05:04:17.260Z,67.71
2018-09-02T05:04:55.563Z,68.25
2018-09-02T05:05:33.520Z,66.75
2018-09-02T05:06:11.451Z,66.71
2018-09-02T05:06:49.528Z,66.43
2018-09-02T05:07:27.536Z,65.76
2018-09-02T05:08:05.473Z,65.30
2018-09-02T05:08:43.474Z,64.82
2018-09-02T05:09:24.355Z,65.32
2018-09-02T05:10:02.410Z,64.98
2018-09-02T05:10:40.300Z,64.45
2018-09-02T05:11:18.281Z,65.90
2018-09-02T05:11:56.323Z,65.58
2018-09-02T05:12:34.388Z,65.82
2018-09-02T05:13:12.348Z,65.46
2018-09-02T05:13:50.376Z,65.38
2018-09-02T05:14:28.342Z,65.26
2018-09-02T05:15:07.439Z,64.95
2018-09-02T05:15:45.572Z,64.55
2018-09-02T05:16:23.470Z,64.06
2018-09-02T05:17:01.456Z,64.22
2018-09-02T05:17:39.793Z,64.82
2018-09-02T05:18:17.914Z,65.55
2018-09-02T05:18:56.850Z,66.38
2018-09-02T05:19:34.828Z,67.82
2018-09-02T05:20:12.891Z,68.46
2018-09-02T05:20:50.919Z,69.21
2018-09-02T05:21:29.016Z,69.57
2018-09-02T05:22:07.211Z,69.19
2018-09-02T05:22:45.365Z,69.20
2018-09-02T05:23:23.424Z,69.22
2018-09-02T05:24:01.673Z,70.42
2018-09-02T05:24:39.624Z,70.62
2018-09-02T05:25:17.589Z,70.48
2018-09-02T05:25:55.552Z,72.50
2018-09-02T05:26:33.648Z,71.88
2018-09-02T05:27:11.681Z,73.27
2018-09-02T05:27:49.735Z,73.71
2018-09-02T05:28:27.810Z,72.55
2018-09-02T05:29:05.769Z,74.00
2018-09-02T05:29:43.718Z,73.41
2018-09-02T05:30:21.737Z,72.45
2018-09-02T05:30:59.876Z,73.50
2018-09-02T05:31:37.792Z,72.83
2018-09-02T05:32:15.812Z,72.74
2018-09-02T05:32:53.933Z,72.79
2018-09-02T05:33:32.033Z,72.36
2018-09-02T05:34:10.027Z,72.95
2018-09-02T05:34:48.363Z,73.30
2018-09-02T05:35:26.367Z,72.67
2018-09-02T05:36:04.443Z,73.66
2018-09-02T05:36:42.539Z,72.72
2018-09-02T05:37:20.624Z,72.76
2018-09-02T05:37:58.619Z,73.76
2018-09-02T05:38:36.579Z,73.38
2018-09-02T05:39:14.812Z,72.24
2018-09-02T05:39:52.805Z,73.09
2018-09-02T05:40:30.859Z,72.01
2018-09-02T05:41:08.859Z,74.00
2018-09-02T05:41:46.826Z,72.83
2018-09-02T05:42:26.110Z,73.23
2018-09-02T05:43:04.037Z,73.25
2018-09-02T05:43:42.175Z,73.16
2018-09-02T05:44:20.624Z,73.16
2018-09-02T05:44:58.629Z,73.43
2018-09-02T05:45:36.531Z,73.90
2018-09-02T05:46:14.556Z,74.49
2018-09-02T05:46:52.709Z,74.72
2018-09-02T05:47:30.685Z,74.31
2018-09-02T05:48:08.913Z,75.00
2018-09-02T05:48:47.218Z,75.34
2018-09-02T05:49:25.229Z,75.05
2018-09-02T05:50:03.177Z,75.06
2018-09-02T05:50:41.110Z,74.63
2018-09-02T05:51:19.077Z,74.73
2018-09-02T05:51:56.997Z,75.67
2018-09-02T05:52:34.972Z,75.82
2018-09-02T05:53:13.524Z,74.73
2018-09-02T05:53:51.486Z,75.72
2018-09-02T05:54:29.432Z,75.82
2018-09-02T05:55:07.464Z,76.30
2018-09-02T05:55:45.449Z,75.07
2018-09-02T05:56:23.489Z,75.54
2018-09-02T05:57:01.665Z,75.39
2018-09-02T05:57:39.711Z,74.87
2018-09-02T05:58:17.719Z,75.24
2018-09-02T05:58:55.687Z,75.70
2018-09-02T05:59:33.603Z,75.07
2018-09-02T06:00:12.221Z,74.70
2018-09-02T06:00:50.211Z,75.76
2018-09-02T06:02:25.171Z,74.71
2018-09-02T06:03:03.195Z,75.20
2018-09-02T06:03:41.208Z,75.08
2018-09-02T06:04:19.180Z,74.94
2018-09-02T06:04:57.171Z,74.64
2018-09-02T06:05:35.263Z,74.91
2018-09-02T06:06:13.426Z,74.98
2018-09-02T06:06:51.342Z,75.48
2018-09-02T06:07:29.431Z,74.05
2018-09-02T06:08:07.404Z,74.15
2018-09-02T06:08:45.342Z,74.20
2018-09-02T06:09:23.269Z,73.67
2018-09-02T06:10:01.369Z,73.42
2018-09-02T06:10:39.771Z,73.12
2018-09-02T06:11:17.792Z,73.53
2018-09-02T06:11:55.712Z,73.29
2018-09-02T06:12:33.642Z,73.07
2018-09-02T06:13:11.626Z,72.70
2018-09-02T06:13:49.682Z,73.14
2018-09-02T06:14:27.772Z,72.84
2018-09-02T06:15:05.840Z,72.75
2018-09-02T06:15:43.784Z,72.65
2018-09-02T06:16:21.795Z,72.17
2018-09-02T06:16:59.856Z,73.24
2018-09-02T06:17:37.820Z,72.45
2018-09-02T06:18:16.665Z,72.54
2018-09-02T06:18:54.636Z,72.15
2018-09-02T06:19:32.696Z,72.22
2018-09-02T06:20:10.635Z,73.17
2018-09-02T06:20:48.644Z,71.71
2018-09-02T06:21:26.644Z,73.27
2018-09-02T06:22:04.731Z,73.22
2018-09-02T06:22:42.778Z,74.29
2018-09-02T06:23:20.793Z,74.01
2018-09-02T06:23:59.027Z,73.42
2018-09-02T06:24:36.970Z,73.03
2018-09-02T06:25:14.987Z,72.49
2018-09-02T06:25:53.013Z,72.94
2018-09-02T06:26:30.977Z,71.65
2018-09-02T06:27:09.030Z,72.71
2018-09-02T06:27:47.922Z,71.67
2018-09-02T06:28:25.816Z,72.08
2018-09-02T06:29:03.778Z,71.69
2018-09-02T06:29:41.722Z,72.06
2018-09-02T06:30:19.773Z,72.75
2018-09-02T06:30:57.767Z,72.36
2018-09-02T06:31:35.808Z,71.67
2018-09-02T06:32:13.721Z,72.55
2018-09-02T06:32:56.165Z,72.75
2018-09-02T06:33:34.098Z,72.77
2018-09-02T06:34:12.097Z,73.28
2018-09-02T06:34:50.021Z,72.36
2018-09-02T06:35:27.917Z,73.16
2018-09-02T06:36:06.057Z,72.56
2018-09-02T06:36:44.111Z,73.20
2018-09-02T06:37:22.093Z,72.01
2018-09-02T06:38:00.214Z,71.72
2018-09-02T06:38:38.324Z,72.16
2018-09-02T06:39:16.322Z,71.37
2018-09-02T06:39:54.386Z,72.68
2018-09-02T06:40:32.463Z,71.95
2018-09-02T06:41:10.682Z,72.31
2018-09-02T06:41:48.696Z,73.13
2018-09-02T06:42:26.755Z,72.84
2018-09-02T06:43:04.796Z,71.73
2018-09-02T06:43:43.524Z,72.88
2018-09-02T06:44:21.474Z,72.34
2018-09-02T06:44:59.496Z,72.60
2018-09-02T06:45:37.701Z,72.07
2018-09-02T06:46:16.749Z,72.19
2018-09-02T06:46:54.741Z,72.50
2018-09-02T06:47:32.840Z,71.31
2018-09-02T06:48:10.948Z,72.48
2018-09-02T06:48:49.338Z,72.50
2018-09-02T06:49:28.392Z,71.70
2018-09-02T06:50:06.433Z,70.52
2018-09-02T06:50:44.571Z,71.42
2018-09-02T06:51:22.494Z,71.43
2018-09-02T06:52:00.454Z,70.41
2018-09-02T06:52:38.387Z,71.34
2018-09-02T06:53:16.497Z,71.01
2018-09-02T06:53:54.526Z,70.13
2018-09-02T06:54:33.269Z,69.82
2018-09-02T06:55:12.063Z,70.52
2018-09-02T06:55:50.067Z,69.86
2018-09-02T06:56:28.073Z,70.37
2018-09-02T06:57:06.070Z,70.42
2018-09-02T06:57:44.033Z,71.41
2018-09-02T06:58:22.049Z,71.69
2018-09-02T06:58:59.964Z,71.33
2018-09-02T06:59:38.156Z,70.82
2018-09-02T07:00:17.077Z,70.21
2018-09-02T07:00:55.100Z,70.59
2018-09-02T07:01:33.900Z,71.45
2018-09-02T07:02:11.969Z,71.27
2018-09-02T07:02:50.220Z,70.86
2018-09-02T07:03:28.379Z,70.46
2018-09-02T07:04:06.352Z,70.74
2018-09-02T07:04:44.228Z,69.96
2018-09-02T07:05:22.379Z,70.08
2018-09-02T07:06:00.375Z,70.36
2018-09-02T07:06:38.398Z,70.25
2018-09-02T07:07:16.427Z,69.68
2018-09-02T07:07:54.423Z,70.11
2018-09-02T07:08:32.328Z,69.69
2018-09-02T07:09:11.113Z,69.40
2018-09-02T07:09:49.201Z,69.55
2018-09-02T07:10:27.206Z,69.93
2018-09-02T07:11:05.158Z,70.72
2018-09-02T07:11:43.166Z,69.94
2018-09-02T07:12:21.143Z,69.68
2018-09-02T07:12:59.070Z,70.37
2018-09-02T07:13:37.137Z,70.49
2018-09-02T07:14:15.165Z,70.20
2018-09-02T07:14:53.212Z,69.96
2018-09-02T07:15:31.233Z,70.05
2018-09-02T07:16:09.207Z,69.86
2018-09-02T07:16:47.384Z,70.02
2018-09-02T07:17:25.467Z,69.65
2018-09-02T07:18:03.511Z,69.28
2018-09-02T07:18:45.878Z,68.99
2018-09-02T07:19:23.813Z,68.63
2018-09-02T07:20:01.766Z,68.86
2018-09-02T07:20:39.708Z,68.20
2018-09-02T07:21:17.727Z,68.72
2018-09-02T07:21:55.760Z,68.69
2018-09-02T07:22:33.732Z,68.73
2018-09-02T07:23:11.684Z,67.89
2018-09-02T07:23:49.730Z,67.92
2018-09-02T07:24:27.712Z,67.37
2018-09-02T07:25:05.953Z,67.16
2018-09-02T07:25:44.017Z,67.02
2018-09-02T07:26:22.021Z,66.56
2018-09-02T07:27:00.046Z,66.30
2018-09-02T07:27:38.073Z,65.87
2018-09-02T07:33:54.919Z,66.07
2018-09-02T07:34:32.892Z,66.90
2018-09-02T07:35:10.855Z,67.62
2018-09-02T07:35:49.093Z,67.86
2018-09-02T07:36:27.077Z,67.81
2018-09-02T07:37:05.351Z,67.72
2018-09-02T07:37:43.305Z,68.08
2018-09-02T07:38:21.489Z,68.14
2018-09-02T07:38:59.477Z,68.13
2018-09-02T07:39:37.597Z,68.45
2018-09-02T07:43:16.791Z,68.50
2018-09-02T07:43:55.033Z,68.95
2018-09-02T07:44:33.134Z,68.52
2018-09-02T07:45:12.373Z,68.63
2018-09-02T07:45:50.383Z,68.55
2018-09-02T07:46:28.430Z,68.65
2018-09-02T07:47:06.483Z,68.62
2018-09-02T07:47:48.939Z,68.45
2018-09-02T07:48:26.900Z,68.50
2018-09-02T07:49:04.954Z,68.63
2018-09-02T07:49:43.038Z,68.65
2018-09-02T07:50:21.051Z,68.66
2018-09-02T07:50:59.044Z,68.80
2018-09-02T07:51:37.193Z,68.62
2018-09-02T07:52:15.168Z,68.91
2018-09-02T07:52:53.193Z,68.52
2018-09-02T07:53:31.068Z,68.30
2018-09-02T07:54:09.024Z,68.15
2018-09-02T07:54:48.337Z,68.01
2018-09-02T07:55:26.300Z,67.95
2018-09-02T07:56:05.097Z,67.75
2018-09-02T07:56:43.123Z,67.88
2018-09-02T07:57:21.186Z,67.62
2018-09-02T07:57:59.153Z,68.01
2018-09-02T07:58:37.174Z,67.76
2018-09-02T07:59:15.170Z,68.14
2018-09-02T07:59:53.103Z,68.49
2018-09-02T08:00:31.210Z,68.87
2018-09-02T08:01:10.147Z,68.55
2018-09-02T08:01:48.355Z,68.51
2018-09-02T08:02:26.243Z,68.86
2018-09-02T08:03:05.207Z,68.25
2018-09-02T08:03:43.193Z,68.16
2018-09-02T08:04:21.583Z,68.47
2018-09-02T08:04:59.605Z,68.35
2018-09-02T08:05:37.673Z,68.45
2018-09-02T08:06:16.636Z,68.48
2018-09-02T08:06:54.592Z,68.36
2018-09-02T08:07:32.510Z,68.08
2018-09-02T08:08:10.553Z,68.03
2018-09-02T08:08:48.577Z,67.87
2018-09-02T08:09:28.240Z,67.93
2018-09-02T08:10:06.254Z,67.59
2018-09-02T08:10:44.156Z,67.21
2018-09-02T08:11:22.959Z,67.00
2018-09-02T08:12:00.990Z,67.02
2018-09-02T08:12:39.377Z,67.02
2018-09-02T08:13:17.448Z,67.03
2018-09-02T08:13:55.645Z,66.72
2018-09-02T08:14:34.177Z,66.83
2018-09-02T08:15:12.225Z,66.71
2018-09-02T08:15:50.197Z,67.02
2018-09-02T08:16:28.250Z,66.94
2018-09-02T08:17:06.317Z,66.99
2018-09-02T08:17:44.215Z,67.23
2018-09-02T08:18:22.173Z,66.79
2018-09-02T08:19:00.182Z,66.96
2018-09-02T08:19:38.125Z,66.42
2018-09-02T08:20:18.028Z,66.41
2018-09-02T08:20:55.878Z,66.27
2018-09-02T08:21:34.186Z,66.51
2018-09-02T08:22:12.497Z,66.24
2018-09-02T08:22:50.624Z,66.48